Time;durP1;ratioP1;P1;durP2;ratioP2;P2;SDS_P1;SDS_P2;PMS_P1;PMS_P2;Temp;Humidity;BMP_temperature;BMP_pressure;BME280_temperature;BME280_humidity;BME280_pressure;Samples;Min_cycle;Max_cycle;Signal;HPM_P1;HPM_P2
2023/07/26 00:01:06;;;;;;;5.03;2.70;;;;;;;16.97;62.40;101057.06;5021181;28;20308;-81
2023/07/26 00:03:31;;;;;;;2.83;2.63;;;;;;;17.02;63.70;101054.06;5024691;28;20028;-81
2023/07/26 00:05:56;;;;;;;5.20;2.75;;;;;;;17.27;61.69;101056.03;5029382;28;20040;-81
2023/07/26 00:08:21;;;;;;;3.50;3.13;;;;;;;17.12;62.09;101060.56;5018615;28;20469;-81
2023/07/26 00:10:47;;;;;;;4.93;3.00;;;;;;;17.09;60.66;101055.41;5028357;28;20250;-81
2023/07/26 00:13:15;;;;;;;5.68;3.08;;;;;;;17.18;61.51;101053.97;5029717;28;20022;-81
2023/07/26 00:15:40;;;;;;;3.67;2.80;;;;;;;17.03;61.95;101053.13;5018573;28;20163;-81
2023/07/26 00:18:07;;;;;;;4.50;2.83;;;;;;;16.98;61.77;101045.41;5018169;28;20467;-81
2023/07/26 00:20:32;;;;;;;5.07;3.08;;;;;;;17.11;61.91;101044.59;5027734;28;20036;-81
2023/07/26 00:22:57;;;;;;;3.53;3.20;;;;;;;16.99;61.24;101060.47;5034838;28;20029;-81
2023/07/26 00:25:22;;;;;;;4.47;3.33;;;;;;;16.97;62.53;101050.84;5021427;28;20358;-81
2023/07/26 00:27:48;;;;;;;3.63;3.33;;;;;;;16.96;62.14;101049.97;5023826;28;20037;-81
2023/07/26 00:30:14;;;;;;;3.80;3.17;;;;;;;16.88;62.24;101048.75;5025464;28;20025;-81
2023/07/26 00:32:40;;;;;;;4.60;3.25;;;;;;;16.80;62.13;101044.75;5023110;28;20026;-81
2023/07/26 00:35:06;;;;;;;3.53;2.92;;;;;;;16.80;62.55;101052.78;5029794;28;20036;-81
2023/07/26 00:37:31;;;;;;;3.67;3.13;;;;;;;16.72;62.82;101052.38;5020869;28;20029;-81
2023/07/26 00:39:56;;;;;;;4.15;3.13;;;;;;;16.66;62.68;101044.72;5023255;28;20056;-81
2023/07/26 00:42:21;;;;;;;4.85;3.20;;;;;;;16.66;62.56;101039.41;5032211;28;20082;-81
2023/07/26 00:44:47;;;;;;;3.53;3.15;;;;;;;16.64;63.56;101038.63;5022123;28;20052;-81
2023/07/26 00:47:12;;;;;;;5.07;3.55;;;;;;;16.61;63.70;101041.50;5022084;28;20369;-81
2023/07/26 00:49:38;;;;;;;3.80;3.28;;;;;;;16.68;63.85;101036.63;5041922;28;20029;-81
2023/07/26 00:52:03;;;;;;;3.75;3.40;;;;;;;16.49;63.51;101043.09;5036430;28;20123;-81
2023/07/26 00:54:28;;;;;;;5.15;3.40;;;;;;;16.47;63.25;101047.69;5042198;28;20068;-81
2023/07/26 00:56:54;;;;;;;8.15;3.30;;;;;;;16.51;64.44;101049.22;5038347;28;20022;-81
2023/07/26 00:59:19;;;;;;;4.28;3.53;;;;;;;16.46;63.27;101040.63;5032087;28;20018;-81
2023/07/26 01:01:44;;;;;;;4.95;3.42;;;;;;;16.43;64.65;101045.28;5030040;28;20017;-81
2023/07/26 01:04:10;;;;;;;4.35;3.15;;;;;;;16.43;64.38;101039.97;5027229;28;20078;-81
2023/07/26 01:06:46;;;;;;;6.78;3.60;;;;;;;16.47;64.14;101039.69;5027487;28;20375;-81
2023/07/26 01:09:19;;;;;;;4.68;3.47;;;;;;;16.46;64.69;101042.41;5016996;28;20036;-81
2023/07/26 01:12:11;;;;;;;4.55;3.53;;;;;;;16.47;64.33;101038.81;5021490;28;20032;-81
2023/07/26 01:14:56;;;;;;;4.38;3.97;;;;;;;16.43;64.03;101047.97;5020611;28;20041;-81
2023/07/26 01:17:22;;;;;;;8.13;4.10;;;;;;;16.31;65.94;101031.72;5020505;28;20030;-81
2023/07/26 01:19:47;;;;;;;5.65;4.10;;;;;;;16.24;65.11;101043.75;5036042;28;20082;-81
2023/07/26 01:22:12;;;;;;;8.40;4.05;;;;;;;16.18;65.73;101045.91;5013220;28;20033;-81
2023/07/26 01:24:37;;;;;;;4.97;4.15;;;;;;;16.17;66.27;101045.06;5020131;28;20033;-81
2023/07/26 01:27:03;;;;;;;5.57;3.92;;;;;;;16.17;65.56;101042.38;5027960;28;20073;-81
2023/07/26 01:29:28;;;;;;;4.50;3.85;;;;;;;16.20;65.15;101042.22;5029170;28;20032;-81
2023/07/26 01:31:54;;;;;;;4.60;3.90;;;;;;;16.22;65.25;101044.78;5020137;28;20103;-81
2023/07/26 01:34:19;;;;;;;5.40;4.50;;;;;;;16.19;64.69;101051.19;5034147;28;20404;-81
2023/07/26 01:36:45;;;;;;;4.05;3.75;;;;;;;16.11;64.62;101048.09;5035050;28;20048;-81
2023/07/26 01:39:11;;;;;;;5.53;4.20;;;;;;;15.94;65.73;101049.09;5025251;28;20094;-81
2023/07/26 01:41:38;;;;;;;5.20;4.10;;;;;;;15.93;66.56;101050.06;5029436;28;20049;-81
2023/07/26 01:44:04;;;;;;;4.32;3.88;;;;;;;15.93;66.87;101049.19;5027508;28;20030;-81
2023/07/26 01:46:29;;;;;;;6.43;4.20;;;;;;;15.89;65.73;101042.31;5017784;28;20180;-81
2023/07/26 01:48:55;;;;;;;7.13;4.35;;;;;;;15.90;65.60;101044.03;5017000;28;20654;-81
2023/07/26 01:51:20;;;;;;;5.45;4.03;;;;;;;15.92;66.04;101042.16;5028457;28;20036;-81
2023/07/26 01:53:45;;;;;;;6.90;4.07;;;;;;;15.95;66.20;101040.16;5019435;28;20038;-81
2023/07/26 01:56:11;;;;;;;6.07;4.47;;;;;;;15.91;64.85;101046.63;5019000;28;20025;-81
2023/07/26 01:58:36;;;;;;;5.18;4.22;;;;;;;15.94;65.57;101045.56;5018464;28;20025;-81
2023/07/26 02:01:03;;;;;;;4.70;3.90;;;;;;;15.95;65.30;101041.97;5020860;28;20579;-81
2023/07/26 02:03:28;;;;;;;5.85;4.40;;;;;;;15.95;64.79;101042.84;5019503;28;20098;-81
2023/07/26 02:05:54;;;;;;;4.97;4.30;;;;;;;15.86;65.22;101039.84;5026390;28;20025;-81
2023/07/26 02:08:19;;;;;;;6.25;4.45;;;;;;;15.85;65.03;101040.78;5020153;28;20037;-81
2023/07/26 02:10:45;;;;;;;6.18;4.05;;;;;;;15.91;65.23;101043.09;5021692;28;20116;-81
2023/07/26 02:13:10;;;;;;;4.80;3.47;;;;;;;15.90;64.32;101044.91;5026404;28;20034;-81
2023/07/26 02:15:35;;;;;;;5.40;4.38;;;;;;;15.92;64.46;101037.66;5027883;28;20034;-81
2023/07/26 02:18:01;;;;;;;4.70;4.20;;;;;;;16.00;64.37;101046.09;5015676;28;20576;-81
2023/07/26 02:20:26;;;;;;;4.80;4.35;;;;;;;16.12;65.42;101054.28;5014838;28;20044;-81
2023/07/26 02:22:52;;;;;;;6.10;3.83;;;;;;;16.12;64.05;101040.94;5027328;28;20021;-81
2023/07/26 02:25:17;;;;;;;6.75;5.07;;;;;;;15.89;67.06;101040.50;5027678;28;20469;-81
2023/07/26 02:27:42;;;;;;;6.43;4.57;;;;;;;15.94;66.38;101045.56;5021877;28;20393;-81
2023/07/26 02:30:08;;;;;;;5.60;4.47;;;;;;;15.88;67.18;101046.81;5023845;28;20025;-81
2023/07/26 02:32:33;;;;;;;4.60;4.13;;;;;;;15.77;67.82;101039.44;5023719;28;20029;-81
2023/07/26 02:34:59;;;;;;;7.55;5.13;;;;;;;15.64;67.82;101033.09;5022471;28;20030;-81
2023/07/26 02:37:24;;;;;;;5.97;4.80;;;;;;;15.38;69.42;101031.91;5032181;28;20025;-81
2023/07/26 02:39:50;;;;;;;8.98;5.13;;;;;;;15.29;70.42;101035.97;5024839;28;20022;-81
2023/07/26 02:42:15;;;;;;;5.22;4.60;;;;;;;15.37;70.84;101040.00;5022364;28;20029;-81
2023/07/26 02:44:41;;;;;;;6.80;5.25;;;;;;;15.41;71.79;101030.88;5020310;28;20030;-81
2023/07/26 02:47:06;;;;;;;5.05;4.55;;;;;;;15.47;70.86;101035.84;5026946;28;20030;-81
2023/07/26 02:49:32;;;;;;;7.40;4.88;;;;;;;15.47;70.70;101028.69;5026571;28;20036;-81
2023/07/26 02:51:57;;;;;;;6.72;4.45;;;;;;;15.52;70.93;101029.28;5028659;28;20068;-81
2023/07/26 02:54:23;;;;;;;5.25;4.30;;;;;;;15.52;70.34;101021.31;5029513;28;20423;-81
2023/07/26 02:56:48;;;;;;;7.95;5.10;;;;;;;15.52;71.97;101026.63;5017222;28;20030;-81
2023/07/26 02:59:13;;;;;;;5.25;4.60;;;;;;;15.42;71.77;101030.78;5037202;28;20025;-81
2023/07/26 03:01:39;;;;;;;8.27;5.43;;;;;;;15.32;72.78;101041.09;5027104;28;20022;-82
2023/07/26 03:04:04;;;;;;;5.57;4.90;;;;;;;15.30;73.19;101044.81;5022276;28;20045;-82
2023/07/26 03:06:30;;;;;;;5.68;5.07;;;;;;;15.32;72.42;101049.09;5027835;28;20025;-82
2023/07/26 03:08:55;;;;;;;5.50;5.00;;;;;;;15.39;71.45;101056.72;5019859;28;20099;-82
2023/07/26 03:11:20;;;;;;;5.68;5.03;;;;;;;15.35;71.39;101055.22;5018857;28;20452;-82
2023/07/26 03:13:45;;;;;;;5.78;4.60;;;;;;;15.35;71.38;101055.22;5021631;28;20033;-82
2023/07/26 03:16:11;;;;;;;6.07;4.63;;;;;;;15.32;70.07;101059.75;5021033;28;20021;-82
2023/07/26 03:18:36;;;;;;;7.18;5.13;;;;;;;15.34;70.84;101072.13;5019928;28;20431;-82
2023/07/26 03:21:01;;;;;;;5.75;4.72;;;;;;;15.25;70.88;101068.19;5021500;28;20026;-82
2023/07/26 03:23:26;;;;;;;5.95;4.50;;;;;;;15.20;71.72;101071.13;5022068;28;20060;-82
2023/07/26 03:25:52;;;;;;;4.78;4.32;;;;;;;15.23;72.49;101065.59;5029100;28;20076;-82
2023/07/26 03:28:17;;;;;;;5.53;4.18;;;;;;;15.19;72.20;101049.88;5028697;28;20068;-82
2023/07/26 03:30:42;;;;;;;5.70;4.57;;;;;;;14.99;73.17;101048.31;5021682;28;20025;-82
2023/07/26 03:33:08;;;;;;;8.38;4.80;;;;;;;14.97;74.79;101055.53;5024302;28;20030;-82
2023/07/26 03:35:34;;;;;;;6.88;4.60;;;;;;;14.99;75.02;101051.84;5017609;28;20520;-82
2023/07/26 03:37:59;;;;;;;6.20;4.90;;;;;;;15.00;74.23;101050.88;5024212;28;20048;-82
2023/07/26 03:40:24;;;;;;;7.18;4.95;;;;;;;14.93;74.92;101048.66;5023616;28;20111;-82
2023/07/26 03:42:50;;;;;;;7.35;4.72;;;;;;;14.85;75.03;101061.53;5021308;28;20036;-82
2023/07/26 03:45:15;;;;;;;6.65;5.20;;;;;;;14.72;75.41;101061.31;5029727;28;20078;-82
2023/07/26 03:47:40;;;;;;;6.78;4.90;;;;;;;14.73;76.50;101055.91;5015963;28;20030;-82
2023/07/26 03:50:06;;;;;;;4.88;4.38;;;;;;;14.64;74.84;101059.09;5019502;28;20116;-82
2023/07/26 03:52:31;;;;;;;6.78;5.05;;;;;;;14.59;76.10;101060.25;5013879;28;20473;-82
2023/07/26 03:54:57;;;;;;;7.15;5.82;;;;;;;14.50;76.48;101058.94;5022331;28;20480;-83
2023/07/26 03:57:22;;;;;;;7.43;4.72;;;;;;;14.45;75.44;101060.97;5036018;28;20035;-82
2023/07/26 03:59:47;;;;;;;6.57;5.40;;;;;;;14.44;76.59;101060.09;5019869;28;20034;-82
2023/07/26 04:02:12;;;;;;;6.68;5.70;;;;;;;14.43;77.42;101058.38;5017420;28;20057;-82
2023/07/26 04:04:38;;;;;;;8.23;5.18;;;;;;;14.43;76.42;101065.50;5023617;28;20037;-82
2023/07/26 04:07:04;;;;;;;7.07;5.72;;;;;;;14.35;76.68;101059.72;5019761;28;20030;-83
2023/07/26 04:09:29;;;;;;;5.70;4.88;;;;;;;14.32;74.67;101051.94;5023456;28;20030;-83
2023/07/26 04:11:56;;;;;;;5.85;4.80;;;;;;;14.32;74.91;101052.78;5015627;28;20022;-83
2023/07/26 04:14:21;;;;;;;5.07;4.60;;;;;;;14.28;75.10;101052.09;5032272;28;20071;-83
2023/07/26 04:16:47;;;;;;;4.45;3.95;;;;;;;14.29;74.68;101055.59;5014528;28;20377;-82
2023/07/26 04:19:12;;;;;;;5.47;4.72;;;;;;;14.26;75.10;101053.94;5010864;28;20049;-82
2023/07/26 04:21:37;;;;;;;5.28;4.60;;;;;;;14.20;76.40;101048.94;5029718;28;20104;-82
2023/07/26 04:24:03;;;;;;;5.03;4.43;;;;;;;14.15;76.71;101056.31;5020736;28;20086;-83
2023/07/26 04:26:28;;;;;;;7.30;4.88;;;;;;;14.09;76.79;101051.31;5017067;28;20068;-83
2023/07/26 04:28:53;;;;;;;5.38;4.82;;;;;;;14.12;76.14;101055.59;5018492;28;20047;-82
2023/07/26 04:31:18;;;;;;;6.10;4.50;;;;;;;14.14;76.14;101051.09;5017548;28;20397;-82
2023/07/26 04:33:44;;;;;;;6.00;4.70;;;;;;;14.13;76.61;101065.28;5019675;28;20061;-82
2023/07/26 04:36:09;;;;;;;5.28;4.30;;;;;;;14.11;76.37;101060.06;5026942;28;20025;-82
2023/07/26 04:38:34;;;;;;;5.57;4.40;;;;;;;14.08;76.18;101062.00;5011403;28;20079;-83
2023/07/26 04:40:59;;;;;;;6.43;4.45;;;;;;;14.11;76.28;101057.41;5014774;28;20034;-82
2023/07/26 04:43:25;;;;;;;6.43;4.43;;;;;;;14.19;76.91;101059.69;5024036;28;20469;-82
2023/07/26 04:45:52;;;;;;;6.38;4.47;;;;;;;14.22;76.20;101056.84;5016120;28;20038;-82
2023/07/26 04:48:18;;;;;;;4.30;3.90;;;;;;;14.28;75.39;101054.75;5017723;28;20084;-83
2023/07/26 04:50:47;;;;;;;5.35;4.28;;;;;;;14.35;75.63;101067.72;5018250;28;20040;-82
2023/07/26 04:53:13;;;;;;;6.93;4.35;;;;;;;14.26;75.71;101053.94;5027736;28;20318;-82
2023/07/26 04:55:48;;;;;;;7.80;4.70;;;;;;;14.32;75.96;101066.09;5028354;28;20030;-83
2023/07/26 04:58:13;;;;;;;5.60;4.50;;;;;;;14.39;77.31;101063.94;5017643;28;20550;-83
2023/07/26 05:00:39;;;;;;;4.75;4.20;;;;;;;14.45;75.78;101060.97;5023826;28;20030;-82
2023/07/26 05:03:05;;;;;;;6.53;4.18;;;;;;;14.48;75.60;101064.34;5030131;28;20026;-83
2023/07/26 05:05:32;;;;;;;7.40;4.90;;;;;;;14.49;76.12;101060.75;5029505;28;20377;-83
2023/07/26 05:07:57;;;;;;;6.35;5.05;;;;;;;14.59;76.11;101063.78;5016060;28;20105;-83
2023/07/26 05:10:25;;;;;;;5.50;4.85;;;;;;;14.71;74.62;101057.81;5019168;28;20113;-82
2023/07/26 05:12:50;;;;;;;5.53;4.82;;;;;;;14.85;74.81;101062.38;5023332;28;20025;-83
2023/07/26 05:15:15;;;;;;;6.28;5.63;;;;;;;14.77;74.47;101054.81;5021406;28;20095;-83
2023/07/26 05:17:41;;;;;;;11.82;6.25;;;;;;;14.76;74.74;101057.56;5026182;28;20446;-83
2023/07/26 05:20:06;;;;;;;7.05;6.00;;;;;;;14.75;74.48;101054.03;5030517;28;20125;-83
2023/07/26 05:22:32;;;;;;;13.07;5.57;;;;;;;14.75;75.09;101066.50;5023342;28;20033;-83
2023/07/26 05:24:57;;;;;;;7.70;5.70;;;;;;;14.73;74.80;101063.03;5034031;28;20116;-83
2023/07/26 05:27:22;;;;;;;7.47;5.85;;;;;;;14.75;75.03;101056.72;5013405;28;20497;-83
2023/07/26 05:29:47;;;;;;;7.82;6.00;;;;;;;14.83;74.43;101050.97;5031803;28;20034;-83
2023/07/26 05:32:13;;;;;;;9.02;6.63;;;;;;;14.85;75.45;101057.06;5022910;28;20022;-83
2023/07/26 05:34:38;;;;;;;9.48;5.88;;;;;;;14.82;75.53;101061.69;5031361;28;20056;-83
2023/07/26 05:37:04;;;;;;;11.30;6.68;;;;;;;14.89;75.23;101061.28;5022073;28;20090;-83
2023/07/26 05:39:29;;;;;;;8.82;6.43;;;;;;;14.99;75.14;101059.81;5027055;28;20330;-83
2023/07/26 05:41:55;;;;;;;10.07;6.57;;;;;;;15.04;75.19;101068.41;5021645;28;20073;-83
2023/07/26 05:44:20;;;;;;;8.35;6.43;;;;;;;15.18;75.37;101057.00;5026214;28;20052;-83
2023/07/26 05:46:45;;;;;;;9.18;5.90;;;;;;;15.35;74.11;101061.41;5019753;28;20988;-83
2023/07/26 05:49:11;;;;;;;9.00;6.28;;;;;;;15.53;74.62;101064.81;5022604;28;20116;-83
2023/07/26 05:51:36;;;;;;;13.82;6.20;;;;;;;15.68;73.83;101071.97;5026197;28;20041;-83
2023/07/26 05:54:01;;;;;;;11.95;6.70;;;;;;;15.81;73.95;101067.66;5030930;28;20594;-83
2023/07/26 05:56:26;;;;;;;9.85;7.22;;;;;;;15.84;73.97;101065.72;5026799;28;20038;-83
2023/07/26 05:58:52;;;;;;;9.13;6.15;;;;;;;15.83;73.45;101064.88;5020685;28;20418;-82
2023/07/26 06:01:17;;;;;;;9.25;6.32;;;;;;;15.84;73.77;101063.06;5028910;28;20029;-82
2023/07/26 06:03:43;;;;;;;8.88;6.97;;;;;;;15.84;74.32;101063.91;5020520;28;20036;-82
2023/07/26 06:06:08;;;;;;;10.43;6.65;;;;;;;15.87;73.57;101070.91;5033102;28;20030;-82
2023/07/26 06:08:33;;;;;;;12.23;6.72;;;;;;;15.88;73.14;101075.28;5029753;28;20468;-82
2023/07/26 06:10:59;;;;;;;9.35;7.00;;;;;;;16.01;72.85;101084.28;5035377;28;20029;-82
2023/07/26 06:13:24;;;;;;;9.32;6.75;;;;;;;16.17;73.70;101086.88;5034036;28;20028;-82
2023/07/26 06:15:49;;;;;;;10.13;6.88;;;;;;;16.25;72.12;101085.47;5028005;28;20018;-82
2023/07/26 06:18:14;;;;;;;11.23;6.90;;;;;;;16.42;72.05;101084.47;5018902;28;20113;-82
2023/07/26 06:20:40;;;;;;;11.00;6.75;;;;;;;16.51;72.28;101094.59;5033727;28;20488;-82
2023/07/26 06:23:06;;;;;;;12.18;7.40;;;;;;;16.51;72.64;101091.91;5029347;28;20025;-82
2023/07/26 06:25:32;;;;;;;11.18;7.90;;;;;;;16.56;71.70;101095.16;5033184;28;20030;-82
2023/07/26 06:27:58;;;;;;;11.15;7.38;;;;;;;16.58;71.98;101106.59;5025773;28;20032;-82
2023/07/26 06:30:23;;;;;;;13.55;7.65;;;;;;;16.55;72.15;101100.56;5028296;28;20392;-82
2023/07/26 06:32:49;;;;;;;10.68;7.50;;;;;;;16.58;72.32;101103.06;5025611;28;20065;-82
2023/07/26 06:35:14;;;;;;;11.50;8.05;;;;;;;16.65;72.65;101112.44;5014187;28;20029;-82
2023/07/26 06:37:40;;;;;;;9.70;7.90;;;;;;;16.75;71.80;101116.28;5023641;28;20030;-82
2023/07/26 06:40:05;;;;;;;14.98;8.95;;;;;;;16.75;72.03;101126.09;5025493;28;20032;-82
2023/07/26 06:42:32;;;;;;;11.75;8.43;;;;;;;16.68;72.70;101122.91;5022800;28;20072;-82
2023/07/26 06:44:57;;;;;;;11.73;9.38;;;;;;;16.68;72.64;101122.91;5026913;28;20030;-82
2023/07/26 06:47:23;;;;;;;12.35;8.65;;;;;;;16.70;72.75;101126.34;5027579;28;20029;-82
2023/07/26 06:49:48;;;;;;;14.30;9.48;;;;;;;16.75;73.38;101124.28;5028158;28;20053;-82
2023/07/26 06:52:13;;;;;;;13.27;9.02;;;;;;;16.77;73.34;101121.53;5038508;28;20020;-82
2023/07/26 06:54:39;;;;;;;13.80;9.27;;;;;;;16.81;73.29;101134.59;5040600;28;20024;-82
2023/07/26 06:57:04;;;;;;;11.85;8.43;;;;;;;16.85;73.98;101129.06;5022464;28;20030;-81
2023/07/26 06:59:30;;;;;;;12.43;9.52;;;;;;;16.86;73.82;101136.97;5028223;28;20028;-82
2023/07/26 07:01:55;;;;;;;11.05;9.80;;;;;;;16.84;74.22;101138.91;5012876;28;20453;-82
2023/07/26 07:04:20;;;;;;;13.57;9.30;;;;;;;16.86;74.15;101141.47;5018327;28;20040;-82
2023/07/26 07:06:46;;;;;;;14.05;9.63;;;;;;;16.87;74.15;101138.69;5017998;28;20735;-82
2023/07/26 07:09:12;;;;;;;12.25;8.85;;;;;;;16.89;73.49;101141.28;5024487;28;20442;-82
2023/07/26 07:11:37;;;;;;;14.30;9.68;;;;;;;16.89;73.64;101138.63;5022517;28;20095;-81
2023/07/26 07:14:03;;;;;;;14.55;9.70;;;;;;;16.91;73.40;101150.91;5019881;28;20481;-81
2023/07/26 07:16:29;;;;;;;14.38;10.38;;;;;;;16.87;74.87;101146.69;5025787;28;20489;-82
2023/07/26 07:18:54;;;;;;;14.88;10.15;;;;;;;16.91;75.15;101164.25;5014218;28;20033;-82
2023/07/26 07:21:20;;;;;;;16.60;9.50;;;;;;;16.89;74.68;101170.66;5017822;28;20018;-81
2023/07/26 07:23:46;;;;;;;12.15;8.75;;;;;;;16.76;74.16;101176.72;5019576;28;20365;-81
2023/07/26 07:26:11;;;;;;;14.88;9.95;;;;;;;16.69;74.61;101191.34;5017037;28;20393;-81
2023/07/26 07:28:37;;;;;;;17.20;9.98;;;;;;;16.02;76.04;101176.66;5019398;28;20034;-82
2023/07/26 07:31:02;;;;;;;17.48;10.43;;;;;;;15.64;79.92;101192.16;5028793;28;20112;-82
2023/07/26 07:33:27;;;;;;;13.63;9.95;;;;;;;15.41;80.72;101188.06;5027574;28;20069;-82
2023/07/26 07:35:53;;;;;;;13.52;10.63;;;;;;;15.14;80.38;101175.28;5021198;28;20044;-82
2023/07/26 07:38:18;;;;;;;18.60;11.80;;;;;;;15.20;81.84;101174.09;5019324;28;20061;-82
2023/07/26 07:40:44;;;;;;;14.90;12.32;;;;;;;15.32;81.40;101171.63;5027791;28;20556;-83
2023/07/26 07:43:09;;;;;;;16.48;11.68;;;;;;;15.46;82.57;101181.53;5024217;28;20418;-82
2023/07/26 07:45:39;;;;;;;18.88;11.77;;;;;;;15.57;81.75;101183.59;5026795;28;20025;-82
2023/07/26 07:48:05;;;;;;;14.82;12.00;;;;;;;15.74;81.23;101191.56;5028693;28;20018;-82
2023/07/26 07:50:30;;;;;;;15.30;12.55;;;;;;;15.80;80.92;101183.19;5030938;28;20039;-83
2023/07/26 07:52:56;;;;;;;16.73;12.52;;;;;;;15.89;81.38;101179.16;5017160;28;20030;-84
2023/07/26 07:55:21;;;;;;;17.83;12.65;;;;;;;16.07;81.38;101177.25;5017092;28;20025;-82
2023/07/26 07:57:46;;;;;;;23.65;14.57;;;;;;;16.29;81.34;101174.19;5017692;28;20038;-82
2023/07/26 08:00:12;;;;;;;19.08;13.38;;;;;;;16.83;81.28;101170.09;5030137;28;20112;-82
2023/07/26 08:02:37;;;;;;;19.13;13.10;;;;;;;17.13;80.21;101177.16;5020522;28;20029;-82
2023/07/26 08:05:03;;;;;;;18.45;11.30;;;;;;;17.15;78.72;101175.22;5027915;28;20053;-82
2023/07/26 08:07:28;;;;;;;16.42;9.90;;;;;;;17.53;75.32;101164.81;5019887;28;20028;-82
2023/07/26 08:09:54;;;;;;;15.75;10.77;;;;;;;18.31;75.21;101162.34;5029670;28;20024;-82
2023/07/26 08:12:19;;;;;;;14.40;9.77;;;;;;;19.24;71.18;101159.56;5014004;28;20025;-82
2023/07/26 08:14:49;;;;;;;17.77;9.88;;;;;;;20.01;67.52;101162.91;5020898;28;20133;-82
2023/07/26 08:17:14;;;;;;;13.30;9.40;;;;;;;20.61;65.95;101168.16;5025593;28;20052;-82
2023/07/26 08:19:39;;;;;;;14.07;9.43;;;;;;;20.88;63.77;101172.34;5039317;28;20124;-82
2023/07/26 08:22:05;;;;;;;13.07;9.13;;;;;;;20.77;62.35;101167.81;5026827;28;20033;-82
2023/07/26 08:24:30;;;;;;;12.60;8.20;;;;;;;21.06;62.07;101178.97;5024406;28;20029;-81
2023/07/26 08:26:55;;;;;;;10.85;8.43;;;;;;;21.61;61.40;101174.59;5020464;28;20108;-82
2023/07/26 08:29:20;;;;;;;11.38;7.75;;;;;;;22.16;58.66;101180.00;5023036;28;20508;-82
2023/07/26 08:31:46;;;;;;;9.60;7.70;;;;;;;22.73;55.81;101175.19;5026237;28;20033;-82
2023/07/26 08:34:11;;;;;;;9.73;7.65;;;;;;;23.19;54.88;101171.22;5030829;28;20029;-82
2023/07/26 08:36:36;;;;;;;11.55;7.60;;;;;;;23.55;52.63;101165.25;5027332;28;20044;-82
2023/07/26 08:39:02;;;;;;;14.18;7.95;;;;;;;23.61;53.01;101169.22;5033611;28;20360;-82
2023/07/26 08:41:28;;;;;;;13.38;7.55;;;;;;;23.96;52.00;101162.50;5019748;28;20057;-82
2023/07/26 08:43:55;;;;;;;11.73;7.05;;;;;;;24.10;52.60;101167.47;5035209;28;20052;-82
2023/07/26 08:46:22;;;;;;;9.73;7.10;;;;;;;24.33;50.02;101159.94;5038348;28;20029;-82
2023/07/26 08:48:49;;;;;;;8.38;6.72;;;;;;;24.80;51.27;101173.56;5021963;28;20057;-82
2023/07/26 08:51:15;;;;;;;8.52;6.82;;;;;;;24.82;48.15;101160.78;5038639;28;20032;-82
2023/07/26 08:53:44;;;;;;;7.90;6.90;;;;;;;24.52;47.20;101168.06;5022266;28;20400;-82
2023/07/26 08:56:09;;;;;;;10.27;7.60;;;;;;;24.52;50.17;101156.41;5022333;28;20022;-82
2023/07/26 08:58:34;;;;;;;9.55;7.03;;;;;;;25.51;48.33;101164.94;5024406;28;20083;-82
2023/07/26 09:01:00;;;;;;;8.25;6.38;;;;;;;26.00;45.24;101165.53;5023280;28;20036;-82
2023/07/26 09:03:25;;;;;;;11.85;6.57;;;;;;;26.47;46.95;101151.75;5024684;28;20475;-84
2023/07/26 09:06:05;;;;;;;11.20;6.78;;;;;;;26.61;44.14;101152.03;5035066;28;20083;-82
2023/07/26 09:08:30;;;;;;;8.32;6.13;;;;;;;26.59;41.81;101148.63;5030396;28;20038;-82
2023/07/26 09:10:55;;;;;;;6.55;5.85;;;;;;;25.78;45.13;101147.84;5026932;28;20023;-82
2023/07/26 09:13:21;;;;;;;7.53;5.97;;;;;;;25.31;46.48;101148.78;5042070;28;20118;-82
2023/07/26 09:15:46;;;;;;;8.15;6.05;;;;;;;26.20;43.21;101148.09;5021336;28;20068;-82
2023/07/26 09:18:14;;;;;;;8.00;5.63;;;;;;;26.76;42.92;101137.88;5027778;28;20029;-82
2023/07/26 09:20:40;;;;;;;6.50;4.88;;;;;;;26.66;41.26;101135.28;5033581;28;20061;-82
2023/07/26 09:23:05;;;;;;;6.22;5.28;;;;;;;26.10;43.91;101147.31;5030787;28;20025;-82
2023/07/26 09:25:39;;;;;;;9.37;5.73;;;;;;;24.45;45.65;101137.22;5021758;28;20034;-82
2023/07/26 09:28:06;;;;;;;9.70;5.63;;;;;;;23.45;48.58;101139.19;5030374;28;20025;-82
2023/07/26 09:30:36;;;;;;;7.25;5.90;;;;;;;22.60;52.51;101138.47;5021161;28;20025;-82
2023/07/26 09:33:02;;;;;;;8.48;6.28;;;;;;;22.23;51.85;101143.47;5019275;28;20040;-82
2023/07/26 09:35:30;;;;;;;7.80;5.70;;;;;;;21.67;51.77;101143.63;5023887;28;20041;-82
2023/07/26 09:37:56;;;;;;;9.38;6.30;;;;;;;21.33;53.87;101149.06;5021199;28;20040;-82
2023/07/26 09:40:33;;;;;;;9.10;6.18;;;;;;;21.55;53.91;101144.66;5025005;28;20400;-82
2023/07/26 09:42:59;;;;;;;6.55;5.35;;;;;;;22.51;49.91;101141.13;5019793;28;20053;-82
2023/07/26 09:45:24;;;;;;;7.85;4.80;;;;;;;22.77;50.78;101137.03;5014850;28;20040;-82
2023/07/26 09:47:53;;;;;;;8.57;4.57;;;;;;;22.40;47.69;101133.97;5017601;28;20433;-82
2023/07/26 09:50:30;;;;;;;5.43;4.55;;;;;;;22.26;48.77;101134.28;5014010;28;20033;-82
2023/07/26 09:52:56;;;;;;;9.80;5.22;;;;;;;21.79;52.41;101141.78;5021623;28;20040;-81
2023/07/26 09:55:24;;;;;;;5.85;5.22;;;;;;;21.64;51.75;101152.81;5026426;28;20025;-81
2023/07/26 09:57:55;;;;;;;7.78;5.15;;;;;;;21.53;51.90;101149.28;5020295;28;20025;-82
2023/07/26 10:00:23;;;;;;;6.78;4.72;;;;;;;21.60;54.39;101151.34;5018524;28;20576;-82
2023/07/26 10:03:01;;;;;;;6.15;4.30;;;;;;;21.42;50.83;101160.06;5020581;28;20017;-82
2023/07/26 10:05:29;;;;;;;6.40;3.17;;;;;;;21.34;48.29;101158.84;5030947;28;20065;-81
2023/07/26 10:07:55;;;;;;;2.70;2.38;;;;;;;21.27;45.30;101151.38;5012694;28;20017;-81
2023/07/26 10:10:22;;;;;;;3.25;2.38;;;;;;;21.54;45.21;101141.09;5023233;28;20087;-81
2023/07/26 10:12:50;;;;;;;3.35;2.28;;;;;;;22.31;43.98;101146.38;5029667;28;20025;-81
2023/07/26 10:15:17;;;;;;;2.53;2.33;;;;;;;23.13;44.52;101145.63;5020144;28;20021;-81
2023/07/26 10:17:47;;;;;;;2.33;1.80;;;;;;;23.63;42.28;101137.53;5021478;28;20135;-81
2023/07/26 10:20:13;;;;;;;3.05;2.47;;;;;;;23.77;40.75;101144.41;5026378;28;20111;-81
2023/07/26 10:22:39;;;;;;;3.30;2.53;;;;;;;23.87;41.82;101151.53;5020988;28;20124;-81
2023/07/26 10:25:05;;;;;;;2.65;2.35;;;;;;;23.67;43.34;101152.50;5027247;28;20021;-82
2023/07/26 10:27:32;;;;;;;3.80;3.10;;;;;;;23.57;43.96;101144.34;5019433;28;20029;-82
2023/07/26 10:29:57;;;;;;;5.60;3.30;;;;;;;23.08;44.52;101147.84;5031902;28;20029;-81
2023/07/26 10:32:23;;;;;;;5.68;3.60;;;;;;;22.55;45.25;101147.97;5023857;28;20379;-81
2023/07/26 10:34:58;;;;;;;6.95;3.50;;;;;;;22.40;46.78;101133.97;5025481;28;20524;-81
2023/07/26 10:37:31;;;;;;;4.82;3.17;;;;;;;22.91;45.98;101133.19;5023330;28;20025;-81
2023/07/26 10:39:57;;;;;;;6.55;3.75;;;;;;;23.47;44.00;101145.31;5026488;28;20038;-81
2023/07/26 10:42:27;;;;;;;8.82;3.65;;;;;;;23.85;43.42;101139.19;5023295;28;20107;-81
2023/07/26 10:44:54;;;;;;;6.93;3.88;;;;;;;23.63;43.47;101132.13;5016755;28;20064;-81
2023/07/26 10:47:20;;;;;;;5.43;3.63;;;;;;;24.10;44.41;101130.50;5023582;28;20380;-81
2023/07/26 10:49:46;;;;;;;6.72;3.90;;;;;;;24.74;42.96;101122.78;5024888;28;20028;-81
2023/07/26 10:52:12;;;;;;;6.20;3.70;;;;;;;24.88;42.77;101128.56;5024062;28;20026;-81
2023/07/26 10:54:44;;;;;;;6.78;3.92;;;;;;;25.25;41.68;101130.44;5023343;28;20662;-81
2023/07/26 10:57:20;;;;;;;6.57;3.90;;;;;;;25.62;40.23;101133.09;5022402;28;20684;-81
2023/07/26 10:59:50;;;;;;;5.85;3.95;;;;;;;25.56;41.67;101140.97;5020608;28;20269;-81
2023/07/26 11:02:15;;;;;;;5.88;4.13;;;;;;;25.60;44.27;101132.41;5014440;28;20051;-81
2023/07/26 11:04:44;;;;;;;5.25;3.78;;;;;;;25.48;42.11;101130.91;5022493;28;20029;-81
2023/07/26 11:07:11;;;;;;;6.03;3.50;;;;;;;25.55;41.00;101131.97;5015442;28;20032;-81
2023/07/26 11:09:36;;;;;;;6.15;3.78;;;;;;;25.63;40.74;101133.94;5018704;28;20322;-81
2023/07/26 11:12:09;;;;;;;7.43;4.00;;;;;;;25.23;43.02;101139.72;5016607;28;20077;-81
2023/07/26 11:14:35;;;;;;;5.88;4.28;;;;;;;25.22;43.53;101136.16;5010532;28;20033;-81
2023/07/26 11:17:14;;;;;;;5.35;4.43;;;;;;;25.19;42.50;101131.91;5016098;28;20823;-81